createdAt,value
2018-01-22T00:01:07.212Z,999.59
2018-01-22T00:02:17.266Z,999.65
2018-01-22T00:03:27.067Z,999.7
2018-01-22T00:04:37.125Z,999.71
2018-01-22T00:05:48.379Z,999.71
2018-01-22T00:06:58.466Z,999.77
2018-01-22T00:08:08.263Z,999.79
2018-01-22T00:09:18.313Z,999.73
2018-01-22T00:10:28.387Z,999.79
2018-01-22T00:11:38.180Z,999.8
2018-01-22T00:12:49.389Z,999.74
2018-01-22T00:13:59.444Z,999.76
2018-01-22T00:15:09.524Z,999.75
2018-01-22T00:16:19.618Z,999.77
2018-01-22T00:17:29.640Z,999.73
2018-01-22T00:18:39.776Z,999.74
2018-01-22T00:19:49.817Z,999.68
2018-01-22T00:21:00.503Z,999.71
2018-01-22T00:22:10.537Z,999.7
2018-01-22T00:23:20.582Z,999.67
2018-01-22T00:24:30.458Z,999.68
2018-01-22T00:25:40.540Z,999.67
2018-01-22T00:26:50.890Z,999.69
2018-01-22T00:28:00.931Z,999.67
2018-01-22T00:29:10.989Z,999.69
2018-01-22T00:30:21.116Z,999.63
2018-01-22T00:31:31.170Z,999.6
2018-01-22T00:32:41.229Z,999.56
2018-01-22T00:33:51.013Z,999.58
2018-01-22T00:35:00.790Z,999.57
2018-01-22T00:36:10.846Z,999.5
2018-01-22T00:37:20.878Z,999.52
2018-01-22T00:38:30.917Z,999.48
2018-01-22T00:39:40.958Z,999.46
2018-01-22T00:40:50.993Z,999.43
2018-01-22T00:42:01.092Z,999.44
2018-01-22T00:43:10.873Z,999.45
2018-01-22T00:44:20.654Z,999.38
2018-01-22T00:45:30.711Z,999.38
2018-01-22T00:46:40.487Z,999.46
2018-01-22T00:47:50.593Z,999.44
2018-01-22T00:49:00.381Z,999.49
2018-01-22T00:50:10.438Z,999.51
2018-01-22T00:51:20.481Z,999.53
2018-01-22T00:52:30.538Z,999.52
2018-01-22T00:53:40.568Z,999.52
2018-01-22T00:54:50.619Z,999.51
2018-01-22T00:56:00.680Z,999.5
2018-01-22T00:57:10.723Z,999.45
2018-01-22T00:58:20.574Z,999.5
2018-01-22T00:59:30.438Z,999.51
2018-01-22T01:00:40.490Z,999.57
2018-01-22T01:01:50.552Z,999.6
2018-01-22T01:03:00.332Z,999.55
2018-01-22T01:04:10.440Z,999.61
2018-01-22T01:05:20.529Z,999.65
2018-01-22T01:06:30.567Z,999.65
2018-01-22T01:07:40.358Z,999.63
2018-01-22T01:08:50.132Z,999.66
2018-01-22T01:09:59.905Z,999.69
2018-01-22T01:11:09.684Z,999.7
2018-01-22T01:12:19.470Z,999.7
2018-01-22T01:13:29.527Z,999.72
2018-01-22T01:14:39.572Z,999.7
2018-01-22T01:15:49.613Z,999.69
2018-01-22T01:16:59.182Z,999.67
2018-01-22T01:18:10.472Z,999.62
2018-01-22T01:19:20.512Z,999.61
2018-01-22T01:20:30.549Z,999.61
2018-01-22T01:21:40.599Z,999.55
2018-01-22T01:22:50.423Z,999.57
2018-01-22T01:24:00.221Z,999.54
2018-01-22T01:25:10.275Z,999.59
2018-01-22T01:26:20.316Z,999.56
2018-01-22T01:27:30.366Z,999.53
2018-01-22T01:28:40.137Z,999.53
2018-01-22T01:29:50.178Z,999.5
2018-01-22T01:31:00.223Z,999.49
2018-01-22T01:32:10.275Z,999.52
2018-01-22T01:33:20.318Z,999.46
2018-01-22T01:34:30.364Z,999.44
2018-01-22T01:35:40.141Z,999.46
2018-01-22T01:36:50.209Z,999.47
2018-01-22T01:38:00.233Z,999.56
2018-01-22T01:39:10.016Z,999.57
2018-01-22T01:40:20.054Z,999.59
2018-01-22T01:41:30.091Z,999.65
2018-01-22T01:42:39.876Z,999.64
2018-01-22T01:43:50.014Z,999.68
2018-01-22T01:45:00.086Z,999.65
2018-01-22T01:46:09.877Z,999.61
2018-01-22T01:47:19.929Z,999.62
2018-01-22T01:48:29.976Z,999.63
2018-01-22T01:49:40.012Z,999.61
2018-01-22T01:50:50.084Z,999.63
2018-01-22T01:52:00.182Z,999.64
2018-01-22T01:53:10.224Z,999.68
2018-01-22T01:54:20.020Z,999.72
2018-01-22T01:55:30.074Z,999.74
2018-01-22T01:56:39.852Z,999.78
2018-01-22T01:57:49.890Z,999.79
2018-01-22T01:58:59.673Z,999.74
2018-01-22T02:00:09.727Z,999.77
2018-01-22T02:01:19.520Z,999.72
2018-01-22T02:02:29.300Z,999.69
2018-01-22T02:03:39.400Z,999.63
2018-01-22T02:04:49.204Z,999.6
2018-01-22T02:05:58.982Z,999.62
2018-01-22T02:07:09.026Z,999.56
2018-01-22T02:08:19.077Z,999.55
2018-01-22T02:09:28.964Z,999.58
2018-01-22T02:10:39.006Z,999.52
2018-01-22T02:11:49.043Z,999.56
2018-01-22T02:12:59.141Z,999.52
2018-01-22T02:14:09.190Z,999.52
2018-01-22T02:15:18.967Z,999.48
2018-01-22T02:16:29.019Z,999.48
2018-01-22T02:17:39.065Z,999.48
2018-01-22T02:18:49.127Z,999.45
2018-01-22T02:19:59.168Z,999.48
2018-01-22T02:21:09.252Z,999.48
2018-01-22T02:22:18.777Z,999.51
2018-01-22T02:23:28.810Z,999.45
2018-01-22T02:24:38.587Z,999.45
2018-01-22T02:25:48.361Z,999.47
2018-01-22T02:26:58.155Z,999.45
2018-01-22T02:28:08.201Z,999.45
2018-01-22T02:29:18.254Z,999.5
2018-01-22T02:30:28.290Z,999.51
2018-01-22T02:31:38.329Z,999.51
2018-01-22T02:32:47.911Z,999.49
2018-01-22T02:33:57.703Z,999.47
2018-01-22T02:35:07.734Z,999.5
2018-01-22T02:36:17.797Z,999.52
2018-01-22T02:37:27.854Z,999.5
2018-01-22T02:38:37.912Z,999.47
2018-01-22T02:39:47.947Z,999.46
2018-01-22T02:40:57.984Z,999.46
2018-01-22T02:42:08.022Z,999.53
2018-01-22T02:43:18.055Z,999.59
2018-01-22T02:44:28.158Z,999.59
2018-01-22T02:45:38.207Z,999.52
2018-01-22T02:46:48.253Z,999.53
2018-01-22T02:47:58.054Z,999.5
2018-01-22T02:49:07.840Z,999.49
2018-01-22T02:50:17.899Z,999.43
2018-01-22T02:51:27.675Z,999.4
2018-01-22T02:52:36.936Z,999.47
2018-01-22T02:53:46.723Z,999.48
2018-01-22T02:54:56.777Z,999.44
2018-01-22T02:56:06.879Z,999.38
2018-01-22T02:57:16.916Z,999.31
2018-01-22T02:58:26.972Z,999.26
2018-01-22T02:59:36.761Z,999.2
2018-01-22T03:00:46.799Z,999.18
2018-01-22T03:01:57.035Z,999.18
2018-01-22T03:03:06.830Z,999.17
2018-01-22T03:34:23.715Z,999.55
2018-01-22T03:35:33.495Z,999.51
2018-01-22T03:36:43.529Z,999.46
2018-01-22T03:37:53.326Z,999.46
2018-01-22T03:39:03.361Z,999.42
2018-01-22T03:40:13.153Z,999.42
2018-01-22T03:41:23.196Z,999.44
2018-01-22T03:42:32.990Z,999.44
2018-01-22T03:43:42.773Z,999.47
2018-01-22T03:44:52.590Z,999.47
2018-01-22T03:46:02.687Z,999.53
2018-01-22T03:47:12.747Z,999.53
2018-01-22T03:48:22.522Z,999.49
2018-01-22T03:49:32.572Z,999.44
2018-01-22T03:50:42.609Z,999.38
2018-01-22T03:51:52.660Z,999.35
2018-01-22T03:53:02.186Z,999.32
2018-01-22T03:54:12.229Z,999.33
2018-01-22T03:55:22.013Z,999.28
2018-01-22T03:56:32.049Z,999.29
2018-01-22T03:57:42.082Z,999.29
2018-01-22T03:58:52.121Z,999.28
2018-01-22T04:00:01.896Z,999.19
2018-01-22T04:01:11.936Z,999.23
2018-01-22T04:02:21.972Z,999.24
2018-01-22T04:03:31.495Z,999.29
2018-01-22T04:04:41.520Z,999.27
2018-01-22T04:05:51.577Z,999.25
2018-01-22T04:07:01.349Z,999.3
2018-01-22T04:08:11.402Z,999.31
2018-01-22T04:09:21.189Z,999.36
2018-01-22T04:10:30.959Z,999.35
2018-01-22T04:11:40.753Z,999.37
2018-01-22T04:12:50.801Z,999.33
2018-01-22T04:14:00.857Z,999.3
2018-01-22T04:15:10.896Z,999.23
2018-01-22T04:16:21.598Z,999.28
2018-01-22T04:17:31.639Z,999.24
2018-01-22T04:18:41.421Z,999.26
2018-01-22T04:19:51.484Z,999.22
2018-01-22T04:21:01.575Z,999.23
2018-01-22T04:22:11.627Z,999.26
2018-01-22T04:23:21.695Z,999.27
2018-01-22T04:24:31.794Z,999.25
2018-01-22T04:25:41.855Z,999.29
2018-01-22T04:26:51.654Z,999.24
2018-01-22T04:28:01.717Z,999.25
2018-01-22T04:29:13.076Z,999.26
2018-01-22T04:30:23.134Z,999.17
2018-01-22T04:31:32.907Z,999.15
2018-01-22T04:32:42.956Z,999.17
2018-01-22T04:33:52.999Z,999.18
2018-01-22T04:35:02.787Z,999.15
2018-01-22T04:36:12.830Z,999.08
2018-01-22T04:37:22.612Z,999.09
2018-01-22T04:38:32.661Z,999.02
2018-01-22T04:39:42.713Z,999.03
2018-01-22T04:40:52.486Z,999.03
2018-01-22T04:42:02.530Z,998.96
2018-01-22T04:43:12.350Z,998.96
2018-01-22T04:44:22.386Z,998.96
2018-01-22T04:45:32.426Z,998.94
2018-01-22T04:46:42.225Z,998.93
2018-01-22T04:47:52.017Z,998.92
2018-01-22T04:49:01.794Z,998.89
2018-01-22T04:50:11.844Z,998.84
2018-01-22T04:51:21.898Z,998.85
2018-01-22T04:52:31.933Z,998.85
2018-01-22T04:53:42.019Z,998.82
2018-01-22T04:54:52.068Z,998.78
2018-01-22T04:56:02.120Z,998.74
2018-01-22T04:57:12.165Z,998.77
2018-01-22T04:58:22.206Z,998.76
2018-01-22T04:59:32.244Z,998.75
2018-01-22T05:00:42.278Z,998.77
2018-01-22T05:01:52.326Z,998.71
2018-01-22T05:03:02.383Z,998.66
2018-01-22T05:04:12.260Z,998.61
2018-01-22T05:05:22.302Z,998.61
2018-01-22T05:06:32.339Z,998.58
2018-01-22T05:07:42.241Z,998.54
2018-01-22T05:08:52.276Z,998.54
2018-01-22T05:10:02.316Z,998.48
2018-01-22T05:11:12.366Z,998.46
2018-01-22T05:12:22.429Z,998.43
2018-01-22T05:13:32.466Z,998.42
2018-01-22T05:14:42.508Z,998.4
2018-01-22T05:15:52.544Z,998.34
2018-01-22T05:17:02.586Z,998.33
2018-01-22T05:18:12.773Z,998.3
2018-01-22T05:19:22.882Z,998.3
2018-01-22T05:20:32.669Z,998.3
2018-01-22T05:21:42.730Z,998.26
2018-01-22T05:22:52.774Z,998.3
2018-01-22T05:24:02.825Z,998.31
2018-01-22T05:25:12.424Z,998.28
2018-01-22T05:26:22.203Z,998.23
2018-01-22T05:27:31.984Z,998.26
2018-01-22T05:28:42.034Z,998.26
2018-01-22T05:29:52.062Z,998.26
2018-01-22T05:31:02.106Z,998.28
2018-01-22T05:32:12.135Z,998.27
2018-01-22T05:33:22.198Z,998.25
2018-01-22T05:34:32.257Z,998.24
2018-01-22T05:35:42.300Z,998.27
2018-01-22T05:36:52.330Z,998.32
2018-01-22T05:38:02.358Z,998.27
2018-01-22T05:39:12.413Z,998.24
2018-01-22T05:40:22.186Z,998.18
2018-01-22T05:41:31.971Z,998.16
2018-01-22T05:42:42.027Z,998.19
2018-01-22T05:43:51.796Z,998.15
2018-01-22T05:45:01.847Z,998.17
2018-01-22T05:46:11.918Z,998.18
2018-01-22T05:47:21.702Z,998.18
2018-01-22T05:48:31.741Z,998.1
2018-01-22T05:49:41.784Z,998.07
2018-01-22T05:50:51.827Z,998.08
2018-01-22T05:52:01.607Z,998.1
2018-01-22T05:53:11.804Z,998.14
2018-01-22T05:54:21.599Z,998.17
2018-01-22T05:55:31.651Z,998.21
2018-01-22T05:56:41.716Z,998.29
2018-01-22T05:57:51.520Z,998.3
2018-01-22T05:59:01.563Z,998.32
2018-01-22T06:00:11.341Z,998.31
2018-01-22T06:01:21.361Z,998.27
2018-01-22T06:02:31.164Z,998.22
2018-01-22T06:03:41.216Z,998.2
2018-01-22T06:04:50.996Z,998.21
2018-01-22T06:06:01.274Z,998.17
2018-01-22T06:07:11.307Z,998.15
2018-01-22T06:08:21.362Z,998.15
2018-01-22T06:09:31.408Z,998.15
2018-01-22T06:10:41.435Z,998.11
2018-01-22T06:11:51.228Z,998.13
2018-01-22T06:13:00.753Z,998.16
2018-01-22T06:14:10.795Z,998.17
2018-01-22T06:15:20.599Z,998.11
2018-01-22T06:16:30.656Z,998.08
2018-01-22T06:17:40.740Z,998.08
2018-01-22T06:18:50.776Z,998.12
2018-01-22T06:20:00.761Z,998.11
2018-01-22T06:21:10.801Z,998.09
2018-01-22T06:22:20.855Z,998.1
2018-01-22T06:23:30.650Z,998.11
2018-01-22T06:24:40.711Z,998.08
2018-01-22T06:25:50.753Z,998.04
2018-01-22T06:27:00.545Z,998.01
2018-01-22T06:28:10.572Z,997.95
2018-01-22T06:29:20.617Z,997.92
2018-01-22T06:30:30.399Z,997.95
2018-01-22T06:31:40.286Z,997.96
2018-01-22T06:32:50.333Z,997.96
2018-01-22T06:34:00.120Z,997.98
2018-01-22T06:35:09.898Z,997.96
2018-01-22T06:36:19.935Z,997.97
2018-01-22T06:37:29.971Z,997.96
2018-01-22T06:38:39.773Z,998.02
2018-01-22T06:39:49.055Z,998.01
2018-01-22T06:40:58.577Z,997.98
2018-01-22T06:42:08.353Z,997.93
2018-01-22T06:43:18.395Z,997.92
2018-01-22T06:44:28.176Z,997.89
2018-01-22T06:45:38.223Z,997.83
2018-01-22T06:46:48.290Z,997.82
2018-01-22T06:47:58.326Z,997.83
2018-01-22T06:49:08.421Z,997.86
2018-01-22T06:50:17.955Z,997.87
2018-01-22T06:51:28.007Z,997.88
2018-01-22T06:52:37.796Z,997.9
2018-01-22T06:53:47.838Z,997.91
2018-01-22T06:54:57.881Z,997.91
2018-01-22T06:56:07.938Z,997.93
2018-01-22T06:57:17.981Z,997.92
2018-01-22T06:58:27.812Z,997.92
2018-01-22T06:59:37.862Z,997.99
2018-01-22T07:00:47.388Z,997.99
2018-01-22T07:01:57.505Z,998
2018-01-22T07:03:07.290Z,998.05
2018-01-22T07:04:17.433Z,998.06
2018-01-22T07:05:27.477Z,998.11
2018-01-22T07:06:37.550Z,998.12
2018-01-22T07:07:47.598Z,998.12
2018-01-22T07:08:57.968Z,998.14
2018-01-22T07:10:07.824Z,998.07
2018-01-22T07:11:17.877Z,998.07
2018-01-22T07:12:28.112Z,998.05
2018-01-22T07:13:37.649Z,998.05
2018-01-22T07:14:47.689Z,998.11
2018-01-22T07:15:57.525Z,998.12
2018-01-22T07:17:07.565Z,998.13
2018-01-22T07:18:17.384Z,998.11
2018-01-22T07:19:27.425Z,998.16
2018-01-22T07:20:37.474Z,998.15
2018-01-22T07:21:47.522Z,998.08
2018-01-22T07:22:57.303Z,998.08
2018-01-22T07:24:06.865Z,998.07
2018-01-22T07:25:16.914Z,998.03
2018-01-22T07:26:26.771Z,998.03
2018-01-22T07:27:36.924Z,997.98
2018-01-22T07:28:46.962Z,997.96
2018-01-22T07:29:57.010Z,997.91
2018-01-22T07:31:06.844Z,997.84
2018-01-22T07:32:16.889Z,997.79
2018-01-22T07:33:26.929Z,997.84
2018-01-22T07:34:36.996Z,997.8
2018-01-22T07:35:47.055Z,997.86
2018-01-22T07:36:56.844Z,997.88
2018-01-22T07:38:06.947Z,997.89
2018-01-22T07:39:16.998Z,997.89
2018-01-22T07:40:26.811Z,997.88
2018-01-22T07:41:36.895Z,997.87
2018-01-22T07:42:47.019Z,997.83
2018-01-22T07:43:57.066Z,997.85
2018-01-22T07:45:07.172Z,997.88
2018-01-22T07:46:16.960Z,997.95
2018-01-22T07:47:26.746Z,997.89
2018-01-22T07:48:36.921Z,997.89
2018-01-22T07:49:46.960Z,997.87
2018-01-22T07:50:56.753Z,997.89
2018-01-22T07:52:06.845Z,997.88
2018-01-22T07:53:16.624Z,997.9
2018-01-22T07:54:26.399Z,997.87
2018-01-22T07:55:36.448Z,997.84
2018-01-22T07:56:46.286Z,997.86
2018-01-22T07:57:56.344Z,997.85
2018-01-22T07:59:06.139Z,997.87
2018-01-22T08:00:16.197Z,997.87
2018-01-22T08:01:25.991Z,997.86
2018-01-22T08:02:36.043Z,997.88
2018-01-22T08:03:45.908Z,997.83
2018-01-22T08:04:55.737Z,997.83
2018-01-22T08:06:05.791Z,997.83
2018-01-22T08:07:15.593Z,997.86
2018-01-22T08:08:25.648Z,997.9
2018-01-22T08:09:35.445Z,997.96
2018-01-22T08:10:45.485Z,997.94
2018-01-22T08:11:55.523Z,997.92
2018-01-22T08:13:05.605Z,997.86
2018-01-22T08:14:15.656Z,997.8
2018-01-22T08:15:25.718Z,997.77
2018-01-22T08:16:35.508Z,997.76
2018-01-22T08:17:45.293Z,997.79
2018-01-22T08:18:54.827Z,997.82
2018-01-22T08:20:04.917Z,997.87
2018-01-22T08:21:15.137Z,997.84
2018-01-22T08:22:24.674Z,997.9
2018-01-22T08:23:34.752Z,997.88
2018-01-22T08:24:44.825Z,997.93
2018-01-22T08:25:54.608Z,997.96
2018-01-22T08:27:04.680Z,997.96
2018-01-22T08:28:14.217Z,997.98
2018-01-22T08:29:23.762Z,998
2018-01-22T08:30:33.805Z,998.04
2018-01-22T08:31:43.953Z,998.06
2018-01-22T08:32:53.749Z,998.07
2018-01-22T08:34:05.162Z,998.11
2018-01-22T08:35:15.252Z,998.08
2018-01-22T08:36:24.810Z,998.05
2018-01-22T08:37:34.960Z,998.05
2018-01-22T08:38:44.755Z,998.08
2018-01-22T08:39:54.540Z,998.1
2018-01-22T08:41:04.696Z,998.06
2018-01-22T08:42:15.834Z,998.06
2018-01-22T08:43:27.208Z,997.97
2018-01-22T08:44:37.937Z,997.94
2018-01-22T08:45:48.735Z,997.88
2018-01-22T08:46:58.788Z,997.92
2018-01-22T08:48:08.827Z,997.93
2018-01-22T08:49:18.931Z,997.9
2018-01-22T08:50:28.992Z,997.86
2018-01-22T08:51:39.036Z,997.88
2018-01-22T08:52:48.819Z,997.85
2018-01-22T08:53:58.882Z,997.88
2018-01-22T08:55:08.983Z,997.86
2018-01-22T08:56:18.782Z,997.88
2018-01-22T08:57:28.854Z,997.89
2018-01-22T08:58:38.413Z,997.92
2018-01-22T08:59:48.224Z,997.89
2018-01-22T09:00:58.407Z,997.84
2018-01-22T09:02:08.466Z,997.85
2018-01-22T09:03:18.503Z,997.87
2018-01-22T09:04:28.302Z,997.86
2018-01-22T09:05:38.437Z,997.89
2018-01-22T09:06:48.502Z,997.91
2018-01-22T09:07:59.232Z,997.86
2018-01-22T09:09:09.345Z,997.85
2018-01-22T09:10:19.395Z,997.82
2018-01-22T09:11:29.212Z,997.76
2018-01-22T09:12:39.284Z,997.73
2018-01-22T09:13:49.350Z,997.72
2018-01-22T09:14:59.176Z,997.76
2018-01-22T09:16:08.990Z,997.79
2018-01-22T09:17:18.764Z,997.76
2018-01-22T09:18:28.813Z,997.8
2018-01-22T09:19:38.857Z,997.81
2018-01-22T09:20:48.643Z,997.84
2018-01-22T09:21:58.685Z,997.8
2018-01-22T09:23:08.770Z,997.78
2018-01-22T09:24:18.824Z,997.75
2018-01-22T09:25:28.917Z,997.73
2018-01-22T09:26:39.064Z,997.69
2018-01-22T09:27:49.118Z,997.66
2018-01-22T09:28:59.164Z,997.65
2018-01-22T09:30:08.959Z,997.55
2018-01-22T09:31:18.762Z,997.51
2018-01-22T09:32:28.551Z,997.49
2018-01-22T09:33:38.647Z,997.46
2018-01-22T09:34:48.700Z,997.43
2018-01-22T09:35:58.771Z,997.39
2018-01-22T09:37:08.815Z,997.34
2018-01-22T09:38:19.096Z,997.29
2018-01-22T09:39:29.167Z,997.25
2018-01-22T09:40:39.239Z,997.29
2018-01-22T09:41:49.280Z,997.35
2018-01-22T09:42:59.342Z,997.34
2018-01-22T09:44:09.154Z,997.37
2018-01-22T09:45:19.053Z,997.34
2018-01-22T09:46:29.123Z,997.26
2018-01-22T09:47:39.465Z,997.2
2018-01-22T09:48:49.547Z,997.21
2018-01-22T09:49:59.336Z,997.22
2018-01-22T09:51:09.431Z,997.26
2018-01-22T09:52:19.231Z,997.27
2018-01-22T09:53:29.054Z,997.31
2018-01-22T09:54:38.854Z,997.25
2018-01-22T09:55:49.751Z,997.22
2018-01-22T09:56:59.810Z,997.2
2018-01-22T09:58:09.621Z,997.22
2018-01-22T09:59:19.685Z,997.16
2018-01-22T10:00:29.826Z,997.16
2018-01-22T10:01:39.931Z,997.19
2018-01-22T10:02:49.998Z,997.2
2018-01-22T10:03:59.787Z,997.21
2018-01-22T10:05:09.844Z,997.22
2018-01-22T10:06:19.936Z,997.2
2018-01-22T10:07:29.474Z,997.15
2018-01-22T10:08:39.519Z,997.16
2018-01-22T10:09:49.801Z,997.17
2018-01-22T10:10:59.865Z,997.17
2018-01-22T10:12:09.926Z,997.16
2018-01-22T10:13:19.977Z,997.13
2018-01-22T10:14:29.762Z,997.17
2018-01-22T10:15:39.849Z,997.21
2018-01-22T10:16:50.160Z,997.23
2018-01-22T10:17:59.984Z,997.2
2018-01-22T10:19:11.370Z,997.2
2018-01-22T10:20:21.168Z,997.22
2018-01-22T10:21:31.213Z,997.25
2018-01-22T10:22:41.035Z,997.26
2018-01-22T10:23:51.147Z,997.32
2018-01-22T10:25:01.048Z,997.33
2018-01-22T10:26:11.120Z,997.27
2018-01-22T10:27:21.200Z,997.18
2018-01-22T10:28:31.279Z,997.16
2018-01-22T10:29:40.877Z,997.15
2018-01-22T10:30:50.149Z,997.12
2018-01-22T10:32:00.211Z,997.19
2018-01-22T10:33:10.071Z,997.24
2018-01-22T10:34:20.134Z,997.27
2018-01-22T10:35:30.303Z,997.21
2018-01-22T10:36:40.363Z,997.12
2018-01-22T10:37:50.163Z,997.11
2018-01-22T10:38:59.700Z,997.06
2018-01-22T10:40:09.497Z,997.04
2018-01-22T10:41:19.286Z,996.99
2018-01-22T10:42:29.085Z,997
2018-01-22T10:43:39.146Z,996.97
2018-01-22T10:44:49.274Z,996.95
2018-01-22T10:45:59.495Z,996.92
2018-01-22T10:47:09.661Z,996.92
2018-01-22T10:48:19.810Z,996.91
2018-01-22T10:49:29.887Z,996.94
2018-01-22T10:50:39.979Z,996.88
2018-01-22T10:51:51.129Z,996.91
2018-01-22T10:53:01.250Z,996.9
2018-01-22T10:54:11.860Z,996.88
2018-01-22T10:55:21.671Z,996.84
2018-01-22T10:56:30.969Z,996.76
2018-01-22T10:57:42.378Z,996.73
2018-01-22T10:58:52.307Z,996.67
2018-01-22T11:00:02.461Z,996.66
2018-01-22T11:01:12.514Z,996.66
2018-01-22T11:02:22.724Z,996.65
2018-01-22T11:03:32.796Z,996.6
2018-01-22T11:04:42.957Z,996.54
2018-01-22T11:05:54.576Z,996.51
2018-01-22T11:07:04.655Z,996.57
2018-01-22T11:08:14.743Z,996.52
2018-01-22T11:09:24.782Z,996.57
2018-01-22T11:10:34.585Z,996.54
2018-01-22T11:11:44.383Z,996.51
2018-01-22T11:12:54.202Z,996.52
2018-01-22T11:14:04.277Z,996.51
2018-01-22T11:15:14.079Z,996.46
2018-01-22T11:16:23.923Z,996.41
2018-01-22T11:17:35.362Z,996.42
2018-01-22T11:18:45.472Z,996.42
2018-01-22T11:19:57.468Z,996.45
2018-01-22T11:21:08.313Z,996.43
2018-01-22T11:22:18.541Z,996.45
2018-01-22T11:23:28.408Z,996.39
2018-01-22T11:24:38.561Z,996.39
2018-01-22T11:25:48.749Z,996.44
2018-01-22T11:27:00.066Z,996.38
2018-01-22T11:28:10.170Z,996.36
2018-01-22T11:29:20.221Z,996.35
2018-01-22T11:30:30.062Z,996.24
2018-01-22T11:31:40.125Z,996.25
2018-01-22T11:32:50.616Z,996.2
2018-01-22T11:34:00.705Z,996.21
2018-01-22T11:35:11.056Z,996.09
2018-01-22T11:36:21.206Z,996.09
2018-01-22T11:37:31.257Z,996.06
2018-01-22T11:38:41.049Z,995.96
2018-01-22T11:39:51.095Z,995.98
2018-01-22T11:41:01.166Z,995.96
2018-01-22T11:42:11.249Z,995.94
2018-01-22T11:43:21.283Z,995.89
2018-01-22T11:44:31.181Z,995.85
2018-01-22T11:45:41.307Z,995.81
2018-01-22T11:46:51.125Z,995.8
2018-01-22T11:48:01.194Z,995.83
2018-01-22T11:49:11.253Z,995.8
2018-01-22T11:50:21.312Z,995.85
2018-01-22T11:51:30.839Z,995.85
2018-01-22T11:52:40.628Z,995.84
2018-01-22T11:53:50.690Z,995.78
2018-01-22T11:55:00.494Z,995.78
2018-01-22T11:56:10.557Z,995.81
2018-01-22T11:57:20.342Z,995.82
2018-01-22T11:58:30.383Z,995.75
2018-01-22T11:59:40.446Z,995.74
2018-01-22T12:00:50.487Z,995.76
2018-01-22T12:02:00.281Z,995.82
2018-01-22T12:03:10.342Z,995.75
2018-01-22T12:04:20.123Z,995.76
2018-01-22T12:05:29.931Z,995.78
2018-01-22T12:06:39.991Z,995.82
2018-01-22T12:07:49.788Z,995.73
2018-01-22T12:08:59.580Z,995.75
2018-01-22T12:10:09.698Z,995.7
2018-01-22T12:11:19.756Z,995.73
2018-01-22T12:12:29.814Z,995.71
2018-01-22T12:13:39.609Z,995.71
2018-01-22T12:14:49.663Z,995.67
2018-01-22T12:15:59.721Z,995.65
2018-01-22T12:17:09.531Z,995.58
2018-01-22T12:18:19.655Z,995.55
2018-01-22T12:19:29.702Z,995.45
2018-01-22T12:20:39.769Z,995.43
2018-01-22T12:21:49.056Z,995.45
2018-01-22T12:22:59.148Z,995.4
2018-01-22T12:24:09.004Z,995.3
2018-01-22T12:25:19.062Z,995.24
2018-01-22T12:26:29.122Z,995.25
2018-01-22T12:27:38.923Z,995.31
2018-01-22T12:28:48.986Z,995.3
2018-01-22T12:29:59.042Z,995.27
2018-01-22T12:31:09.090Z,995.14
2018-01-22T12:32:19.138Z,995.08
2018-01-22T12:33:29.184Z,995.04
2018-01-22T12:34:38.964Z,995.05
2018-01-22T12:35:49.050Z,995.07
2018-01-22T12:36:58.846Z,995.08
2018-01-22T12:38:10.027Z,995.1
2018-01-22T12:39:19.856Z,995.07
2018-01-22T12:40:29.977Z,995.08
2018-01-22T12:41:39.791Z,995.09
2018-01-22T12:42:49.833Z,995.14
2018-01-22T12:43:59.905Z,995.08
2018-01-22T12:45:10.568Z,994.94
2018-01-22T12:46:20.130Z,994.94
2018-01-22T12:47:30.193Z,994.92
2018-01-22T12:48:40.250Z,994.9
2018-01-22T12:49:50.738Z,994.91
2018-01-22T12:51:00.786Z,994.95
2018-01-22T12:52:10.859Z,994.95
2018-01-22T12:53:20.808Z,994.87
2018-01-22T12:54:30.603Z,994.85
2018-01-22T12:55:40.393Z,994.82
2018-01-22T12:56:50.462Z,994.76
2018-01-22T12:58:00.362Z,994.77
2018-01-22T12:59:10.414Z,994.71
2018-01-22T13:00:20.212Z,994.7
2018-01-22T13:01:30.505Z,994.7
2018-01-22T13:02:40.310Z,994.68
2018-01-22T13:03:50.377Z,994.66
2018-01-22T13:05:00.453Z,994.72
2018-01-22T13:06:10.522Z,994.75
2018-01-22T13:07:20.568Z,994.77
2018-01-22T13:08:30.631Z,994.7
2018-01-22T13:09:40.707Z,994.71
2018-01-22T13:10:50.766Z,994.69
2018-01-22T13:12:00.822Z,994.66
2018-01-22T13:13:10.686Z,994.64
2018-01-22T13:14:20.735Z,994.69
2018-01-22T13:15:30.810Z,994.68
2018-01-22T13:16:40.873Z,994.68
2018-01-22T13:17:50.933Z,994.69
2018-01-22T13:19:01.006Z,994.63
2018-01-22T13:20:11.070Z,994.68
2018-01-22T13:21:21.175Z,994.71
2018-01-22T13:22:31.368Z,994.75
2018-01-22T13:23:41.872Z,994.68
2018-01-22T13:24:51.928Z,994.73
2018-01-22T13:26:02.757Z,994.75
2018-01-22T13:27:12.547Z,994.77
2018-01-22T13:28:22.196Z,994.79
2018-01-22T13:29:33.187Z,994.79
2018-01-22T13:30:42.988Z,994.87
2018-01-22T13:31:52.801Z,994.88
2018-01-22T13:33:02.992Z,994.9
2018-01-22T13:34:13.145Z,994.88
2018-01-22T13:35:23.001Z,994.83
2018-01-22T13:36:33.076Z,994.83
2018-01-22T13:37:43.168Z,994.81
2018-01-22T13:38:53.215Z,994.73
2018-01-22T13:40:03.068Z,994.7
2018-01-22T13:41:13.126Z,994.68
2018-01-22T13:42:23.193Z,994.66
2018-01-22T13:43:33.257Z,994.7
2018-01-22T13:44:43.355Z,994.7
2018-01-22T13:45:53.425Z,994.74
2018-01-22T13:47:03.499Z,994.8
2018-01-22T13:48:13.564Z,994.77
2018-01-22T13:49:23.612Z,994.83
2018-01-22T13:50:33.398Z,994.76
2018-01-22T13:51:43.248Z,994.77
2018-01-22T13:52:53.309Z,994.77
2018-01-22T13:54:03.393Z,994.72
2018-01-22T13:55:13.465Z,994.69
2018-01-22T13:56:23.518Z,994.65
2018-01-22T13:57:33.590Z,994.62
2018-01-22T13:58:43.486Z,994.55
2018-01-22T13:59:53.001Z,994.53
2018-01-22T14:01:03.054Z,994.5
2018-01-22T14:02:13.753Z,994.54
2018-01-22T14:03:23.812Z,994.52
2018-01-22T14:04:33.862Z,994.59
2018-01-22T14:05:43.917Z,994.61
2018-01-22T14:06:53.980Z,994.59
2018-01-22T14:08:03.788Z,994.58
2018-01-22T14:09:13.583Z,994.51
2018-01-22T14:10:23.404Z,994.5
2018-01-22T14:11:33.200Z,994.56
2018-01-22T14:12:43.273Z,994.56
2018-01-22T14:13:53.327Z,994.59
2018-01-22T14:15:03.378Z,994.6
2018-01-22T14:16:13.487Z,994.56
2018-01-22T14:17:23.281Z,994.54
2018-01-22T14:18:33.077Z,994.56
2018-01-22T14:19:42.871Z,994.6
2018-01-22T14:20:52.933Z,994.62
2018-01-22T14:22:02.765Z,994.71
2018-01-22T14:23:12.835Z,994.68
2018-01-22T14:24:22.902Z,994.72
2018-01-22T14:25:32.971Z,994.78
2018-01-22T14:26:43.020Z,994.84
2018-01-22T14:27:53.092Z,994.86
2018-01-22T14:29:03.146Z,994.85
2018-01-22T14:30:12.945Z,994.74
2018-01-22T14:31:23.015Z,994.68
2018-01-22T14:32:33.071Z,994.69
2018-01-22T14:33:43.168Z,994.65
2018-01-22T14:34:52.973Z,994.62
2018-01-22T14:36:03.051Z,994.58
2018-01-22T14:37:13.112Z,994.61
2018-01-22T14:38:23.206Z,994.66
2018-01-22T14:39:32.743Z,994.66
2018-01-22T14:40:42.805Z,994.69
2018-01-22T14:41:52.604Z,994.67
2018-01-22T14:43:02.669Z,994.63
2018-01-22T14:44:12.746Z,994.64
2018-01-22T14:45:22.797Z,994.65
2018-01-22T14:46:32.603Z,994.67
2018-01-22T14:47:42.666Z,994.71
2018-01-22T14:48:52.756Z,994.69
2018-01-22T14:50:02.579Z,994.67
2018-01-22T14:51:12.694Z,994.65
2018-01-22T14:52:22.796Z,994.68
2018-01-22T14:53:32.857Z,994.6
2018-01-22T14:54:42.912Z,994.61
2018-01-22T14:55:52.458Z,994.5
2018-01-22T14:57:02.519Z,994.55
2018-01-22T14:58:12.313Z,994.53
2018-01-22T14:59:22.410Z,994.61
2018-01-22T15:00:31.963Z,994.57
2018-01-22T15:01:42.005Z,994.59
2018-01-22T15:02:51.810Z,994.55
2018-01-22T15:04:01.618Z,994.55
2018-01-22T15:05:11.714Z,994.53
2018-01-22T15:06:21.785Z,994.48
2018-01-22T15:07:31.916Z,994.5